FMMT

Toamasina Airport

Madagascar
METAR FMMT 231000Z 14008KT 9999 SCT017 31/26 Q1008 NOSIG
Observed Flight Rules
Feb-23 @ 10:00 UTC (31 minutes ago) Visual Flight Rules
Wind Visibility Clouds
140° at 8 knots 10,000+ meters
  • Scattered at 1,700' AGL
Temperatures Readings
Current 31°C / 88°F
Dewpoint 26°C / 79°F
Humidity 75%
Altimeter 29.76" Hg
Pressure 1008 hPa
Elevation 6
METAR FMMT 231000Z 14008KT 9999 SCT017 31/26 Q1008 NOSIG
Observed Flight Rules
Feb-23 @ 10:00 UTC
(31 minutes ago)
VFR
Wind Visibility
140° at 8 knots 10,000+ meters
Clouds
  • Scattered at 1,700' AGL
Temperature Dewpoint
31°C / 88°F 26°C / 79°F
Humidity Altimeter Pressure
75% 29.76" Hg 1008 hPa